»·PEaware :: UAL1856 KSAN-KIAH

UAL1856 :: KSAN-KIAH

FLIGHT INFORMATION

Flight Status: Arrived
Operator:
United Airlines
More flights by this operator :: More flights under this callsign
Pilot: Vlad D. (11271)
Aircraft: BOEING 737-300
(B733)
More flights by this aircraft type
Origin: KSAN San Diego Intl-Lindbergh
United States
Destination: KIAH G Bush Intercontinental/Houst
United States
More flights between these airports :: More routes between these airports
Route: POGGI5 IPL J2 HOGGZ KA18O WOBUG J184 EWM SJT DIESL MSCOT4
File this flight plan on PilotEdge
Remarks: Flown with Virtual United
Altitude:
(Current/Filed)
35,000ft
Speed:
(Current/Filed)
436kts
Departed: 20-Jun-16 03:25 PM
Arrived: 20-Jun-16 06:23 PM
Distance/Time
Traveled:
1129nm/2:58
Distance/Time
To Go:
Arrived

Flight Plot

Page will automatically refresh every two minutes.


Map Options




Map Legend


Flown Route
Filed Route
Departure Airport
Arrival Airport
Navaid (VOR, NDB)
Fix

Horizontal Profiles

Position Reports

Time Latitude Longitude Heading Altitude Ground
Speed
20-Jun-16 14:48 32.734587 -117.203316 230 17ft 0kts
20-Jun-16 14:49 32.734521 -117.203410 230 17ft 0kts
20-Jun-16 14:50 32.734500 -117.203439 230 17ft 0kts
20-Jun-16 14:51 32.734500 -117.203439 230 17ft 0kts
20-Jun-16 14:52 32.734500 -117.203439 230 17ft 0kts
20-Jun-16 14:53 32.734500 -117.203439 230 17ft 0kts
20-Jun-16 14:54 32.734500 -117.203439 230 17ft 0kts
20-Jun-16 14:55 32.734500 -117.203439 230 17ft 0kts
20-Jun-16 14:56 32.734500 -117.203439 230 17ft 0kts
20-Jun-16 14:57 32.734500 -117.203439 230 17ft 0kts
20-Jun-16 14:58 32.734500 -117.203439 230 17ft 0kts
20-Jun-16 14:59 32.734500 -117.203439 230 17ft 0kts
20-Jun-16 15:00 32.734500 -117.203439 230 17ft 0kts
20-Jun-16 15:01 32.734500 -117.203439 230 17ft 0kts
20-Jun-16 15:02 32.734500 -117.203439 230 17ft 0kts
20-Jun-16 15:03 32.734500 -117.203439 230 17ft 0kts
20-Jun-16 15:04 32.734500 -117.203439 230 17ft 0kts
20-Jun-16 15:05 32.734500 -117.203439 230 17ft 0kts
20-Jun-16 15:06 32.734500 -117.203439 230 17ft 0kts
20-Jun-16 15:07 32.734500 -117.203439 230 17ft 0kts
20-Jun-16 15:08 32.734739 -117.203101 230 17ft 0kts
20-Jun-16 15:09 32.735171 -117.202995 179 17ft 0kts
20-Jun-16 15:10 32.735307 -117.203046 96 17ft 0kts
20-Jun-16 15:11 32.735307 -117.203046 96 17ft 0kts
20-Jun-16 15:12 32.735307 -117.203046 96 17ft 0kts
20-Jun-16 15:13 32.735307 -117.203046 96 17ft 0kts
20-Jun-16 15:14 32.735391 -117.201872 92 17ft 10kts
20-Jun-16 15:15 32.734308 -117.197040 107 17ft 16kts
20-Jun-16 15:16 32.733338 -117.193074 105 20ft 10kts
20-Jun-16 15:17 32.732302 -117.188797 107 18ft 16kts
20-Jun-16 15:18 32.730895 -117.182981 106 17ft 19kts
20-Jun-16 15:19 32.729613 -117.177704 107 21ft 13kts
20-Jun-16 15:20 32.729487 -117.176870 77 22ft 0kts
20-Jun-16 15:21 32.729911 -117.175814 25 23ft 12kts
20-Jun-16 15:22 32.739580 -117.211913 286 858ft 172kts
20-Jun-16 15:23 32.753412 -117.259531 279 2736ft 197kts
20-Jun-16 15:24 32.731750 -117.317895 186 4680ft 245kts
20-Jun-16 15:25 32.669596 -117.278518 147 7314ft 267kts
20-Jun-16 15:26 32.644013 -117.195135 98 9524ft 296kts
20-Jun-16 15:27 32.628711 -117.090997 99 11083ft 351kts
20-Jun-16 15:28 32.611799 -116.975360 89 13623ft 363kts
20-Jun-16 15:29 32.622604 -116.854971 82 15838ft 374kts
20-Jun-16 15:30 32.633964 -116.730214 84 17885ft 385kts
20-Jun-16 15:31 32.645057 -116.602539 82 19739ft 395kts
20-Jun-16 15:32 32.657667 -116.471405 82 21425ft 405kts
20-Jun-16 15:33 32.670564 -116.336555 83 22851ft 417kts
20-Jun-16 15:34 32.684044 -116.198193 83 23877ft 429kts
20-Jun-16 15:35 32.697352 -116.055631 83 24765ft 437kts
20-Jun-16 15:36 32.710613 -115.911630 83 25618ft 442kts
20-Jun-16 15:37 32.723864 -115.765872 83 26533ft 445kts
20-Jun-16 15:38 32.736986 -115.619635 83 27406ft 446kts
20-Jun-16 15:39 32.748869 -115.473064 87 28557ft 442kts
20-Jun-16 15:40 32.752754 -115.330343 88 30416ft 425kts
20-Jun-16 15:41 32.756304 -115.192569 89 32292ft 409kts
20-Jun-16 15:42 32.759254 -115.057859 89 33224ft 411kts
20-Jun-16 15:43 32.761844 -114.919232 89 33265ft 428kts
20-Jun-16 15:44 32.764578 -114.776577 89 33694ft 433kts
20-Jun-16 15:45 32.767205 -114.634008 89 34278ft 432kts
20-Jun-16 15:46 32.767957 -114.491379 90 34797ft 431kts
20-Jun-16 15:47 32.769717 -114.348906 90 34852ft 431kts
20-Jun-16 15:48 32.771888 -114.207000 90 34853ft 431kts
20-Jun-16 15:49 32.773473 -114.064449 90 34853ft 431kts
20-Jun-16 15:50 32.769042 -113.922544 92 34853ft 430kts
20-Jun-16 15:51 32.766575 -113.780314 92 34853ft 430kts
20-Jun-16 15:52 32.764011 -113.637794 92 34856ft 432kts
20-Jun-16 15:53 32.761278 -113.494913 92 34861ft 434kts
20-Jun-16 15:54 32.758395 -113.352489 92 34859ft 427kts
20-Jun-16 15:55 32.755831 -113.212332 93 34862ft 424kts
20-Jun-16 15:56 32.752685 -113.072030 93 34862ft 425kts
20-Jun-16 15:57 32.749378 -112.932001 93 34862ft 425kts
20-Jun-16 15:58 32.745906 -112.791587 93 34862ft 425kts
20-Jun-16 15:59 32.742280 -112.651370 93 34862ft 425kts
20-Jun-16 16:00 32.738498 -112.511078 93 34876ft 423kts
20-Jun-16 16:01 32.734680 -112.374711 93 34950ft 403kts
20-Jun-16 16:02 32.731282 -112.244536 93 34999ft 392kts
20-Jun-16 16:03 32.727399 -112.114364 93 34999ft 395kts
20-Jun-16 16:04 32.723327 -111.983804 93 35000ft 394kts
20-Jun-16 16:05 32.719131 -111.853696 93 34999ft 395kts
20-Jun-16 16:06 32.714801 -111.723539 93 34999ft 394kts
20-Jun-16 16:07 32.710340 -111.593518 93 34999ft 394kts
20-Jun-16 16:08 32.705674 -111.461730 93 34971ft 406kts
20-Jun-16 16:09 32.700809 -111.326252 93 34941ft 415kts
20-Jun-16 16:10 32.696024 -111.188537 93 34938ft 420kts
20-Jun-16 16:11 32.690690 -111.050182 93 34934ft 419kts
20-Jun-16 16:12 32.685193 -110.911772 93 34936ft 420kts
20-Jun-16 16:13 32.679541 -110.773274 93 34956ft 419kts
20-Jun-16 16:14 32.673761 -110.635388 93 34993ft 419kts
20-Jun-16 16:15 32.667812 -110.497071 93 35003ft 419kts
20-Jun-16 16:16 32.661720 -110.358964 93 35008ft 419kts
20-Jun-16 16:17 32.655928 -110.221396 94 35030ft 419kts
20-Jun-16 16:18 32.649570 -110.083698 94 35046ft 420kts
20-Jun-16 16:19 32.642998 -109.945076 94 35045ft 419kts
20-Jun-16 16:19 32.637418 -109.829862 94 35045ft 419kts
20-Jun-16 16:21 32.629429 -109.668577 94 35045ft 419kts
20-Jun-16 16:22 32.623600 -109.553449 94 35045ft 419kts
20-Jun-16 16:23 32.616482 -109.415626 94 35045ft 419kts
20-Jun-16 16:24 32.609532 -109.277789 94 35060ft 419kts
20-Jun-16 16:25 32.602256 -109.140281 94 35092ft 418kts
20-Jun-16 16:26 32.594708 -109.002896 94 35160ft 417kts
20-Jun-16 16:27 32.583443 -108.866214 105 35193ft 415kts
20-Jun-16 16:28 32.551598 -108.734301 105 35191ft 416kts
20-Jun-16 16:29 32.519998 -108.602688 106 35169ft 416kts
20-Jun-16 16:30 32.488004 -108.470003 107 35176ft 421kts
20-Jun-16 16:31 32.455981 -108.337755 107 35097ft 410kts
20-Jun-16 16:32 32.425539 -108.210964 107 34998ft 393kts
20-Jun-16 16:33 32.394872 -108.085619 107 35063ft 403kts
20-Jun-16 16:34 32.363019 -107.956056 107 35164ft 415kts
20-Jun-16 16:35 32.330338 -107.823772 107 35219ft 422kts
20-Jun-16 16:36 32.297295 -107.690688 107 35228ft 422kts
20-Jun-16 16:37 32.264463 -107.557397 106 35229ft 422kts
20-Jun-16 16:38 32.232910 -107.424289 106 35234ft 422kts
20-Jun-16 16:39 32.201414 -107.291357 107 35244ft 422kts
20-Jun-16 16:40 32.169557 -107.158024 107 35246ft 422kts
20-Jun-16 16:41 32.137311 -107.024506 107 35247ft 422kts
20-Jun-16 16:42 32.105018 -106.891464 107 35241ft 422kts
20-Jun-16 16:43 32.072593 -106.758543 107 35235ft 422kts
20-Jun-16 16:44 32.039995 -106.625580 107 35209ft 421kts
20-Jun-16 16:45 32.007363 -106.493131 107 35191ft 421kts
20-Jun-16 16:46 31.974649 -106.361002 107 35192ft 421kts
20-Jun-16 16:47 31.946672 -106.227510 100 35193ft 422kts
20-Jun-16 16:48 31.934198 -106.089833 97 35191ft 423kts
20-Jun-16 16:49 31.923438 -105.951724 97 35192ft 423kts
20-Jun-16 16:50 31.912538 -105.813756 97 35192ft 423kts
20-Jun-16 16:51 31.901483 -105.675744 97 35192ft 423kts
20-Jun-16 16:52 31.890329 -105.538306 97 35191ft 423kts
20-Jun-16 16:53 31.878993 -105.400530 97 35191ft 423kts
20-Jun-16 16:54 31.867879 -105.262936 97 35202ft 422kts
20-Jun-16 16:55 31.856401 -105.126124 97 35223ft 420kts
20-Jun-16 16:56 31.844680 -104.989157 97 35229ft 420kts
20-Jun-16 16:57 31.832858 -104.852747 97 35228ft 420kts
20-Jun-16 16:58 31.820856 -104.715974 97 35228ft 420kts
20-Jun-16 16:59 31.808680 -104.578922 96 35228ft 421kts
20-Jun-16 17:00 31.796405 -104.442435 96 35228ft 420kts
20-Jun-16 17:01 31.784169 -104.306019 97 35230ft 421kts
20-Jun-16 17:02 31.771820 -104.169211 97 35228ft 420kts
20-Jun-16 17:03 31.759075 -104.032467 97 35221ft 420kts
20-Jun-16 17:04 31.746172 -103.895648 97 35208ft 420kts
20-Jun-16 17:05 31.733183 -103.759499 97 35203ft 420kts
20-Jun-16 17:06 31.720009 -103.622981 97 35201ft 420kts
20-Jun-16 17:07 31.706686 -103.486458 97 35212ft 420kts
20-Jun-16 17:08 31.693272 -103.350856 97 35478ft 412kts
20-Jun-16 17:09 31.680173 -103.214999 97 35210ft 419kts
20-Jun-16 17:10 31.666514 -103.079417 97 35222ft 420kts
20-Jun-16 17:10 31.654978 -102.966138 97 35218ft 420kts
20-Jun-16 17:12 31.638648 -102.807511 97 35239ft 420kts
20-Jun-16 17:12 31.626830 -102.693910 97 35255ft 420kts
20-Jun-16 17:14 31.612546 -102.557927 97 35256ft 420kts
20-Jun-16 17:15 31.598119 -102.421988 97 35256ft 420kts
20-Jun-16 17:16 31.583908 -102.286811 98 35256ft 419kts
20-Jun-16 17:17 31.569347 -102.150932 98 35256ft 418kts
20-Jun-16 17:18 31.554569 -102.015845 98 35256ft 418kts
20-Jun-16 17:19 31.539605 -101.880410 98 35256ft 418kts
20-Jun-16 17:20 31.524484 -101.744879 98 35256ft 418kts
20-Jun-16 17:21 31.509295 -101.610060 98 35259ft 417kts
20-Jun-16 17:22 31.494015 -101.475735 98 35261ft 415kts
20-Jun-16 17:23 31.478513 -101.340691 97 35262ft 421kts
20-Jun-16 17:24 31.463109 -101.204129 97 35251ft 424kts
20-Jun-16 17:25 31.447131 -101.067532 97 35228ft 424kts
20-Jun-16 17:26 31.430922 -100.930325 97 35219ft 425kts
20-Jun-16 17:27 31.414579 -100.793266 97 35219ft 425kts
20-Jun-16 17:28 31.398102 -100.656354 97 35219ft 425kts
20-Jun-16 17:29 31.381482 -100.519499 97 35219ft 425kts
20-Jun-16 17:30 31.357725 -100.384050 105 35221ft 426kts
20-Jun-16 17:31 31.324938 -100.251006 105 35219ft 426kts
20-Jun-16 17:32 31.291858 -100.118313 105 35219ft 426kts
20-Jun-16 17:33 31.258521 -99.985412 105 35219ft 425kts
20-Jun-16 17:34 31.225128 -99.852919 105 35221ft 425kts
20-Jun-16 17:35 31.191528 -99.720247 105 35223ft 425kts
20-Jun-16 17:36 31.158125 -99.588972 105 35226ft 424kts
20-Jun-16 17:37 31.124333 -99.456791 105 35225ft 425kts
20-Jun-16 17:38 31.090560 -99.324975 105 35224ft 425kts
20-Jun-16 17:39 31.056792 -99.192695 106 35214ft 425kts
20-Jun-16 17:40 31.022667 -99.061061 106 35210ft 425kts
20-Jun-16 17:41 30.988285 -98.929056 106 35210ft 425kts
20-Jun-16 17:42 30.957604 -98.796339 98 35218ft 424kts
20-Jun-16 17:43 30.938857 -98.660968 98 35219ft 423kts
20-Jun-16 17:44 30.919918 -98.525495 98 35218ft 424kts
20-Jun-16 17:45 30.900790 -98.389786 98 35217ft 425kts
20-Jun-16 17:46 30.882061 -98.255246 98 35218ft 426kts
20-Jun-16 17:47 30.862632 -98.119119 98 35217ft 426kts
20-Jun-16 17:48 30.843029 -97.983214 98 35195ft 425kts
20-Jun-16 17:49 30.822944 -97.847668 98 35178ft 425kts
20-Jun-16 17:50 30.802912 -97.712117 98 35175ft 426kts
20-Jun-16 17:51 30.782711 -97.576123 98 35174ft 426kts
20-Jun-16 17:52 30.762341 -97.439925 98 33386ft 425kts
20-Jun-16 17:53 30.742321 -97.305846 98 31215ft 428kts
20-Jun-16 17:54 30.721660 -97.168260 99 29026ft 433kts
20-Jun-16 17:55 30.700535 -97.030274 99 26846ft 438kts
20-Jun-16 17:56 30.679161 -96.892766 99 24642ft 425kts
20-Jun-16 17:57 30.658551 -96.760038 99 23226ft 416kts
20-Jun-16 17:58 30.636884 -96.627804 99 22564ft 414kts
20-Jun-16 17:59 30.616168 -96.498435 99 21211ft 403kts
20-Jun-16 18:00 30.579872 -96.379544 126 19910ft 398kts
20-Jun-16 18:01 30.516892 -96.280955 125 18987ft 390kts
20-Jun-16 18:02 30.453877 -96.179044 125 17438ft 384kts
20-Jun-16 18:03 30.392225 -96.081722 126 15450ft 373kts
20-Jun-16 18:04 30.336043 -95.983587 119 14117ft 370kts
20-Jun-16 18:04 30.294741 -95.898965 119 12287ft 358kts
20-Jun-16 18:06 30.246716 -95.800832 119 10225ft 342kts
20-Jun-16 18:07 30.203090 -95.711050 118 10031ft 291kts
20-Jun-16 18:08 30.163949 -95.629047 118 9489ft 294kts
20-Jun-16 18:09 30.124861 -95.547783 118 8386ft 286kts
20-Jun-16 18:10 30.092935 -95.467993 91 7919ft 272kts
20-Jun-16 18:11 30.091356 -95.383366 90 7039ft 250kts
20-Jun-16 18:12 30.091226 -95.309298 91 6865ft 235kts
20-Jun-16 18:13 30.085092 -95.234384 99 5495ft 233kts
20-Jun-16 18:14 30.075964 -95.160799 99 4095ft 229kts
20-Jun-16 18:15 30.047057 -95.109188 196 2974ft 209kts
20-Jun-16 18:16 29.999315 -95.134420 232 2965ft 190kts
20-Jun-16 18:17 29.992827 -95.195781 270 2311ft 193kts
20-Jun-16 18:18 29.993520 -95.252562 268 1369ft 152kts
20-Jun-16 18:19 29.993547 -95.299503 268 555ft 143kts
20-Jun-16 18:20 29.993416 -95.338394 263 96ft 21kts
20-Jun-16 18:21 29.991777 -95.343255 213 96ft 2kts
20-Jun-16 18:22 29.989965 -95.344991 270 96ft 16kts
20-Jun-16 18:23 29.989098 -95.347287 181 96ft 0kts
20-Jun-16 18:24 29.989098 -95.347287 181 96ft 0kts

Navigation Log

Ident Type
Flight plan parsing failed, navigation log unavailable